createdAt,value
2023-03-05T00:02:19.112Z,3.17
2023-03-05T00:04:45.914Z,2.60
2023-03-05T00:07:14.243Z,3.22
2023-03-05T00:09:40.951Z,3.13
2023-03-05T00:12:08.088Z,2.72
2023-03-05T00:14:34.754Z,3.30
2023-03-05T00:17:01.514Z,2.70
2023-03-05T00:19:28.210Z,3.20
2023-03-05T00:21:55.319Z,2.88
2023-03-05T00:24:22.047Z,3.35
2023-03-05T00:26:49.728Z,2.90
2023-03-05T00:29:18.929Z,3.67
2023-03-05T00:31:46.228Z,3.30
2023-03-05T00:34:15.377Z,3.60
2023-03-05T00:36:51.668Z,3.13
2023-03-05T00:39:20.162Z,3.35
2023-03-05T00:41:47.679Z,3.67
2023-03-05T00:44:14.524Z,4.28
2023-03-05T00:46:41.350Z,4.07
2023-03-05T00:49:08.086Z,3.47
2023-03-05T00:51:34.769Z,3.13
2023-03-05T00:54:01.836Z,3.05
2023-03-05T00:56:29.017Z,2.88
2023-03-05T00:58:56.806Z,2.97
2023-03-05T01:01:24.426Z,3.40
2023-03-05T01:03:51.777Z,3.75
2023-03-05T01:06:19.076Z,2.60
2023-03-05T01:08:45.837Z,3.30
2023-03-05T01:11:12.608Z,3.08
2023-03-05T01:13:39.589Z,3.00
2023-03-05T01:16:06.634Z,2.55
2023-03-05T01:18:33.771Z,3.45
2023-03-05T01:21:00.633Z,2.90
2023-03-05T01:23:27.464Z,3.05
2023-03-05T01:25:56.957Z,3.10
2023-03-05T01:28:23.859Z,2.65
2023-03-05T01:30:50.628Z,3.63
2023-03-05T01:33:17.832Z,2.80
2023-03-05T01:35:49.426Z,2.63
2023-03-05T01:38:17.020Z,2.67
2023-03-05T01:40:44.512Z,3.17
2023-03-05T01:43:11.679Z,2.60
2023-03-05T01:45:39.860Z,3.83
2023-03-05T01:48:06.633Z,2.50
2023-03-05T01:50:33.798Z,2.50
2023-03-05T01:53:04.526Z,2.67
2023-03-05T01:55:34.174Z,2.58
2023-03-05T01:58:04.677Z,3.90
2023-03-05T02:00:37.527Z,2.78
2023-03-05T02:03:07.826Z,2.20
2023-03-05T02:05:38.158Z,2.70
2023-03-05T02:08:09.543Z,3.25
2023-03-05T02:10:42.280Z,2.63
2023-03-05T02:13:13.290Z,2.58
2023-03-05T02:15:42.301Z,2.83
2023-03-05T02:18:10.248Z,2.85
2023-03-05T02:20:54.007Z,2.97
2023-03-05T02:23:22.583Z,3.10
2023-03-05T02:25:49.431Z,3.20
2023-03-05T02:28:25.303Z,2.97
2023-03-05T02:30:52.113Z,3.38
2023-03-05T02:33:19.950Z,3.22
2023-03-05T02:35:47.085Z,3.67
2023-03-05T02:38:16.263Z,3.50
2023-03-05T02:40:43.606Z,3.33
2023-03-05T02:43:10.961Z,3.28
2023-03-05T02:45:38.497Z,2.60
2023-03-05T02:48:05.706Z,2.65
2023-03-05T02:50:33.080Z,2.72
2023-03-05T02:53:00.866Z,3.90
2023-03-05T02:55:28.050Z,3.15
2023-03-05T02:57:54.705Z,2.83
2023-03-05T03:00:21.697Z,2.75
2023-03-05T03:02:48.512Z,2.88
2023-03-05T03:05:15.413Z,3.47
2023-03-05T03:07:42.174Z,2.85
2023-03-05T03:10:09.835Z,2.33
2023-03-05T03:12:40.720Z,2.55
2023-03-05T03:15:09.455Z,3.10
2023-03-05T03:17:37.267Z,2.55
2023-03-05T03:20:09.497Z,2.53
2023-03-05T03:22:36.668Z,2.17
2023-03-05T03:25:04.122Z,2.60
2023-03-05T03:27:30.780Z,2.75
2023-03-05T03:30:02.483Z,2.40
2023-03-05T03:32:31.338Z,2.25
2023-03-05T03:37:25.113Z,3.28
2023-03-05T03:39:51.821Z,2.25
2023-03-05T03:42:21.089Z,2.10
2023-03-05T03:44:48.323Z,2.33
2023-03-05T03:47:15.475Z,2.05
2023-03-05T03:49:42.231Z,2.25
2023-03-05T03:52:09.102Z,1.95
2023-03-05T03:54:36.024Z,2.00
2023-03-05T03:57:03.736Z,2.50
2023-03-05T03:59:30.604Z,2.20
2023-03-05T04:01:57.776Z,2.25
2023-03-05T04:04:26.449Z,1.67
2023-03-05T04:06:55.227Z,1.88
2023-03-05T04:09:22.049Z,2.00
2023-03-05T04:11:49.132Z,1.90
2023-03-05T04:14:16.334Z,1.55
2023-03-05T04:16:43.542Z,1.63
2023-03-05T04:19:10.270Z,1.75
2023-03-05T04:21:36.975Z,2.30
2023-03-05T04:24:03.961Z,1.80
2023-03-05T04:26:30.669Z,2.22
2023-03-05T04:29:01.397Z,1.40
2023-03-05T04:31:28.491Z,1.75
2023-03-05T04:33:55.672Z,2.17
2023-03-05T04:36:22.536Z,1.83
2023-03-05T04:38:49.202Z,1.45
2023-03-05T04:41:15.856Z,1.10
2023-03-05T04:43:42.582Z,1.60
2023-03-05T04:46:09.357Z,2.08
2023-03-05T04:48:36.091Z,1.55
2023-03-05T04:51:02.851Z,1.98
2023-03-05T04:53:29.563Z,1.45
2023-03-05T04:55:56.679Z,1.27
2023-03-05T04:58:23.810Z,1.58
2023-03-05T05:00:50.464Z,1.88
2023-03-05T05:03:17.981Z,1.45
2023-03-05T05:05:45.139Z,1.42
2023-03-05T05:08:12.271Z,1.35
2023-03-05T05:10:40.210Z,1.80
2023-03-05T05:13:07.089Z,1.80
2023-03-05T05:15:34.894Z,1.80
2023-03-05T05:18:01.837Z,1.70
2023-03-05T05:20:28.645Z,1.90
2023-03-05T05:22:55.334Z,1.88
2023-03-05T05:25:22.066Z,1.80
2023-03-05T05:27:48.741Z,1.88
2023-03-05T05:30:15.740Z,1.60
2023-03-05T05:32:42.485Z,1.98
2023-03-05T05:35:10.493Z,1.40
2023-03-05T05:37:37.267Z,1.83
2023-03-05T05:40:05.638Z,1.92
2023-03-05T05:42:32.299Z,1.55
2023-03-05T05:44:59.677Z,1.90
2023-03-05T05:47:26.527Z,1.70
2023-03-05T05:49:53.297Z,1.67
2023-03-05T05:52:20.104Z,1.80
2023-03-05T05:54:46.786Z,1.73
2023-03-05T05:57:14.152Z,1.58
2023-03-05T05:59:40.935Z,1.50
2023-03-05T06:02:08.255Z,2.50
2023-03-05T06:04:36.175Z,1.42
2023-03-05T06:07:03.626Z,1.60
2023-03-05T06:09:30.512Z,2.00
2023-03-05T06:11:57.186Z,1.70
2023-03-05T06:14:23.898Z,2.03
2023-03-05T06:16:50.599Z,1.42
2023-03-05T06:19:17.443Z,1.80
2023-03-05T06:21:44.283Z,1.65
2023-03-05T06:24:11.240Z,1.88
2023-03-05T06:26:38.246Z,1.80
2023-03-05T06:29:05.143Z,1.73
2023-03-05T06:31:31.960Z,1.63
2023-03-05T06:34:03.874Z,2.40
2023-03-05T06:36:31.272Z,1.80
2023-03-05T06:38:58.800Z,1.80
2023-03-05T06:41:28.307Z,1.65
2023-03-05T06:43:55.584Z,1.52
2023-03-05T06:46:27.409Z,2.15
2023-03-05T06:48:57.171Z,1.67
2023-03-05T06:51:26.901Z,1.92
2023-03-05T06:53:54.708Z,1.52
2023-03-05T06:56:21.918Z,1.52
2023-03-05T06:58:50.819Z,2.00
2023-03-05T07:03:44.898Z,2.03
2023-03-05T07:06:14.206Z,1.60
2023-03-05T07:08:41.370Z,1.48
2023-03-05T07:11:13.192Z,1.48
2023-03-05T07:13:40.363Z,1.83
2023-03-05T07:16:08.180Z,1.38
2023-03-05T07:18:37.953Z,1.45
2023-03-05T07:21:08.634Z,1.55
2023-03-05T07:23:36.778Z,1.95
2023-03-05T07:26:04.743Z,1.30
2023-03-05T07:28:31.921Z,1.73
2023-03-05T07:31:03.616Z,1.45
2023-03-05T07:33:30.812Z,1.60
2023-03-05T07:35:58.071Z,1.35
2023-03-05T07:38:25.274Z,1.40
2023-03-05T07:40:52.392Z,1.42
2023-03-05T07:43:19.789Z,1.10
2023-03-05T07:45:47.167Z,1.42
2023-03-05T07:48:21.023Z,1.60
2023-03-05T07:50:48.764Z,1.25
2023-03-05T07:53:16.158Z,1.45
2023-03-05T07:55:47.254Z,1.38
2023-03-05T07:58:15.066Z,1.50
2023-03-05T08:00:42.383Z,1.52
2023-03-05T08:03:09.511Z,1.30
2023-03-05T08:05:39.791Z,1.30
2023-03-05T08:08:07.639Z,1.80
2023-03-05T08:10:35.166Z,1.33
2023-03-05T08:13:02.348Z,1.40
2023-03-05T08:15:31.592Z,1.40
2023-03-05T08:17:59.112Z,1.80
2023-03-05T08:20:26.437Z,1.90
2023-03-05T08:22:53.514Z,1.60
2023-03-05T08:25:21.007Z,1.35
2023-03-05T08:27:48.932Z,1.70
2023-03-05T08:30:18.041Z,2.13
2023-03-05T08:32:45.343Z,1.80
2023-03-05T08:35:12.974Z,1.88
2023-03-05T08:37:40.120Z,1.75
2023-03-05T08:40:07.650Z,1.75
2023-03-05T08:42:34.792Z,2.20
2023-03-05T08:45:01.866Z,1.70
2023-03-05T08:47:29.309Z,1.70
2023-03-05T08:49:57.719Z,1.60
2023-03-05T08:52:25.130Z,1.60
2023-03-05T08:54:52.380Z,2.90
2023-03-05T08:57:19.090Z,2.67
2023-03-05T08:59:47.883Z,2.00
2023-03-05T09:04:41.448Z,1.80
2023-03-05T09:07:08.712Z,1.90
2023-03-05T09:09:35.506Z,1.80
2023-03-05T09:12:03.011Z,1.52
2023-03-05T09:14:29.974Z,1.60
2023-03-05T09:16:57.577Z,1.35
2023-03-05T09:19:24.841Z,1.80
2023-03-05T09:21:51.676Z,1.48
2023-03-05T09:24:19.557Z,1.85
2023-03-05T09:26:46.336Z,1.73
2023-03-05T09:29:13.116Z,1.58
2023-03-05T09:31:40.214Z,1.45
2023-03-05T09:34:08.239Z,1.20
2023-03-05T09:36:35.410Z,1.10
2023-03-05T09:39:03.999Z,1.65
2023-03-05T09:41:51.745Z,2.08
2023-03-05T09:44:23.729Z,1.47
2023-03-05T09:46:54.961Z,1.90
2023-03-05T09:50:01.345Z,1.48
2023-03-05T09:52:50.284Z,1.33
2023-03-05T09:55:33.825Z,1.85
2023-03-05T09:58:15.828Z,1.30
2023-03-05T10:00:53.281Z,1.65
2023-03-05T10:03:26.873Z,1.15
2023-03-05T10:06:05.619Z,1.40
2023-03-05T10:11:19.039Z,1.40
2023-03-05T10:13:46.304Z,1.20
2023-03-05T10:16:52.522Z,1.75
2023-03-05T10:19:47.964Z,1.30
2023-03-05T10:22:24.964Z,1.40
2023-03-05T10:25:00.560Z,1.40
2023-03-05T10:27:40.550Z,1.02
2023-03-05T10:30:13.076Z,1.15
2023-03-05T10:33:07.101Z,1.15
2023-03-05T10:35:52.314Z,0.90
2023-03-05T10:38:41.712Z,1.20
2023-03-05T10:41:25.142Z,1.10
2023-03-05T10:44:03.698Z,1.20
2023-03-05T10:46:36.924Z,1.27
2023-03-05T10:49:20.068Z,1.00
2023-03-05T10:52:18.690Z,1.00
2023-03-05T10:54:45.548Z,0.95
2023-03-05T10:57:12.616Z,1.05
2023-03-05T10:59:48.644Z,0.95
2023-03-05T11:02:15.940Z,0.80
2023-03-05T11:04:42.867Z,1.38
2023-03-05T11:07:15.660Z,0.82
2023-03-05T11:10:02.000Z,0.93
2023-03-05T11:12:32.689Z,1.00
2023-03-05T11:15:14.582Z,0.68
2023-03-05T11:17:48.215Z,0.88
2023-03-05T11:20:26.944Z,0.75
2023-03-05T11:25:30.365Z,1.48
2023-03-05T11:28:01.691Z,1.10
2023-03-05T11:30:32.926Z,1.17
2023-03-05T11:33:31.936Z,0.90
2023-03-05T11:36:14.853Z,0.70
2023-03-05T11:39:07.579Z,0.85
2023-03-05T11:41:51.312Z,1.17
2023-03-05T11:44:27.052Z,0.90
2023-03-05T11:47:18.383Z,0.70
2023-03-05T11:49:48.677Z,0.90
2023-03-05T11:52:32.184Z,0.90
2023-03-05T11:55:14.577Z,0.88
2023-03-05T11:58:00.367Z,0.95
2023-03-05T12:00:32.138Z,0.70
2023-03-05T12:03:02.514Z,0.80
2023-03-05T12:05:30.033Z,1.02
2023-03-05T12:08:00.979Z,1.00
2023-03-05T12:10:27.953Z,1.10
2023-03-05T12:13:05.733Z,0.80
2023-03-05T12:15:39.780Z,0.40
2023-03-05T12:18:29.695Z,0.85
2023-03-05T12:21:36.569Z,0.80
2023-03-05T12:24:27.764Z,0.52
2023-03-05T12:27:04.292Z,1.00
2023-03-05T12:29:40.029Z,0.80
2023-03-05T12:32:33.952Z,1.00
2023-03-05T12:35:06.821Z,0.80
2023-03-05T12:37:34.101Z,0.90
2023-03-05T12:40:08.603Z,0.80
2023-03-05T12:42:35.539Z,0.85
2023-03-05T12:45:19.260Z,0.70
2023-03-05T12:47:47.401Z,1.25
2023-03-05T12:50:29.928Z,0.98
2023-03-05T12:52:58.269Z,0.80
2023-03-05T12:55:50.394Z,0.93
2023-03-05T12:58:24.093Z,0.93
2023-03-05T13:01:14.593Z,0.80
2023-03-05T13:03:48.568Z,0.90
2023-03-05T13:06:35.408Z,0.85
2023-03-05T13:09:07.720Z,0.70
2023-03-05T13:11:39.026Z,1.40
2023-03-05T13:14:43.081Z,0.90
2023-03-05T13:17:29.238Z,0.95
2023-03-05T13:19:57.302Z,1.20
2023-03-05T13:22:24.740Z,0.80
2023-03-05T13:25:17.162Z,0.93
2023-03-05T13:27:43.985Z,1.00
2023-03-05T13:30:28.450Z,1.00
2023-03-05T13:33:00.852Z,1.02
2023-03-05T13:35:27.661Z,0.70
2023-03-05T13:37:54.498Z,0.85
2023-03-05T13:40:31.228Z,1.35
2023-03-05T13:43:12.291Z,0.82
2023-03-05T13:45:40.085Z,1.00
2023-03-05T13:48:07.247Z,1.00
2023-03-05T13:50:38.797Z,0.80
2023-03-05T13:53:22.848Z,0.90
2023-03-05T13:55:52.709Z,1.00
2023-03-05T13:58:49.046Z,1.17
2023-03-05T14:01:24.636Z,0.90
2023-03-05T14:03:53.975Z,0.80
2023-03-05T14:06:22.791Z,0.75
2023-03-05T14:11:21.588Z,0.73
2023-03-05T14:13:49.158Z,0.68
2023-03-05T14:16:26.229Z,0.90
2023-03-05T14:18:57.969Z,0.80
2023-03-05T14:21:25.568Z,1.20
2023-03-05T14:23:54.884Z,0.93
2023-03-05T14:26:30.830Z,1.00
2023-03-05T14:29:12.707Z,1.00
2023-03-05T14:31:47.960Z,1.60
2023-03-05T14:34:42.152Z,1.75
2023-03-05T14:37:22.735Z,1.20
2023-03-05T14:39:52.149Z,1.10
2023-03-05T14:42:27.008Z,0.95
2023-03-05T14:44:55.745Z,0.75
2023-03-05T14:49:52.835Z,0.80
2023-03-05T14:52:22.709Z,0.98
2023-03-05T14:54:49.768Z,1.15
2023-03-05T14:57:28.523Z,1.10
2023-03-05T14:59:55.658Z,1.05
2023-03-05T15:02:25.235Z,1.10
2023-03-05T15:04:52.732Z,1.10
2023-03-05T15:07:31.650Z,1.20
2023-03-05T15:10:00.009Z,1.00
2023-03-05T15:12:27.142Z,1.00
2023-03-05T15:14:55.512Z,1.30
2023-03-05T15:17:24.924Z,1.00
2023-03-05T15:19:53.813Z,1.13
2023-03-05T15:22:20.933Z,0.80
2023-03-05T15:24:48.136Z,0.55
2023-03-05T15:27:15.266Z,0.70
2023-03-05T15:29:42.490Z,0.70
2023-03-05T15:32:09.652Z,0.80
2023-03-05T15:34:36.789Z,0.80
2023-03-05T15:37:04.412Z,0.80
2023-03-05T15:39:31.590Z,1.08
2023-03-05T15:41:58.734Z,0.90
2023-03-05T15:44:26.065Z,0.75
2023-03-05T15:46:53.289Z,0.70
2023-03-05T15:49:22.636Z,0.70
2023-03-05T15:51:49.737Z,0.68
2023-03-05T15:54:16.806Z,0.75
2023-03-05T15:56:44.013Z,0.70
2023-03-05T15:59:11.246Z,0.68
2023-03-05T16:01:38.538Z,0.88
2023-03-05T16:04:06.011Z,0.68
2023-03-05T16:06:34.414Z,0.80
2023-03-05T16:09:03.575Z,0.50
2023-03-05T16:11:32.046Z,0.65
2023-03-05T16:14:01.723Z,0.52
2023-03-05T16:16:29.404Z,0.70
2023-03-05T16:18:57.610Z,0.90
2023-03-05T16:21:24.979Z,0.77
2023-03-05T16:23:52.084Z,1.13
2023-03-05T16:26:19.193Z,0.93
2023-03-05T16:28:46.320Z,0.80
2023-03-05T16:31:13.600Z,0.73
2023-03-05T16:33:40.725Z,1.08
2023-03-05T16:36:13.746Z,0.85
2023-03-05T16:38:41.200Z,0.90
2023-03-05T16:41:09.344Z,0.90
2023-03-05T16:43:36.778Z,1.10
2023-03-05T16:46:03.977Z,1.00
2023-03-05T16:48:31.146Z,0.98
2023-03-05T16:50:58.556Z,2.08
2023-03-05T16:53:25.819Z,1.48
2023-03-05T16:55:52.924Z,1.25
2023-03-05T16:58:21.138Z,2.00
2023-03-05T17:00:48.910Z,1.60
2023-03-05T17:03:17.166Z,1.58
2023-03-05T17:05:44.224Z,1.48
2023-03-05T17:08:11.557Z,1.80
2023-03-05T17:10:38.676Z,1.55
2023-03-05T17:13:06.125Z,1.40
2023-03-05T17:15:34.061Z,1.80
2023-03-05T17:18:01.304Z,2.20
2023-03-05T17:20:28.066Z,1.67
2023-03-05T17:22:54.917Z,2.30
2023-03-05T17:25:21.812Z,1.85
2023-03-05T17:27:48.514Z,2.10
2023-03-05T17:30:15.768Z,2.13
2023-03-05T17:32:43.538Z,2.25
2023-03-05T17:35:19.906Z,2.08
2023-03-05T17:37:46.686Z,1.45
2023-03-05T17:40:14.884Z,1.98
2023-03-05T17:42:41.735Z,1.35
2023-03-05T17:45:09.169Z,1.92
2023-03-05T17:47:36.106Z,1.35
2023-03-05T17:50:04.022Z,1.40
2023-03-05T17:52:31.176Z,1.50
2023-03-05T17:54:59.617Z,1.40
2023-03-05T17:57:26.958Z,1.50
2023-03-05T17:59:53.617Z,1.70
2023-03-05T18:02:20.408Z,1.48
2023-03-05T18:04:47.967Z,1.25
2023-03-05T18:07:14.690Z,1.58
2023-03-05T18:09:41.407Z,1.90
2023-03-05T18:12:08.357Z,1.30
2023-03-05T18:14:35.168Z,1.40
2023-03-05T18:17:05.223Z,1.73
2023-03-05T18:19:32.096Z,2.00
2023-03-05T18:21:58.754Z,20.73
2023-03-05T18:24:25.459Z,5.40
2023-03-05T18:26:52.128Z,9.90
2023-03-05T18:29:18.941Z,9.25
2023-03-05T18:31:45.694Z,3.30
2023-03-05T18:34:12.437Z,2.28
2023-03-05T18:36:39.179Z,2.50
2023-03-05T18:39:06.017Z,1.90
2023-03-05T18:41:32.806Z,1.98
2023-03-05T18:43:59.644Z,1.38
2023-03-05T18:46:29.321Z,1.52
2023-03-05T18:48:57.066Z,1.40
2023-03-05T18:51:24.895Z,1.65
2023-03-05T18:53:54.843Z,2.00
2023-03-05T18:56:22.051Z,1.80
2023-03-05T18:58:48.825Z,1.50
2023-03-05T19:01:17.520Z,1.60
2023-03-05T19:06:11.539Z,1.65
2023-03-05T19:08:38.308Z,2.30
2023-03-05T19:11:17.780Z,1.90
2023-03-05T19:13:50.184Z,9.60
2023-03-05T19:16:23.133Z,7.35
2023-03-05T19:19:13.948Z,4.40
2023-03-05T19:21:42.431Z,3.85
2023-03-05T19:24:11.342Z,1.98
2023-03-05T19:26:39.303Z,2.63
2023-03-05T19:29:07.387Z,2.38
2023-03-05T19:31:34.354Z,3.60
2023-03-05T19:34:01.763Z,4.97
2023-03-05T19:36:28.753Z,6.70
2023-03-05T19:38:55.905Z,11.10
2023-03-05T19:41:22.676Z,12.00
2023-03-05T19:43:50.553Z,10.27
2023-03-05T19:46:17.646Z,5.30
2023-03-05T19:48:44.829Z,3.47
2023-03-05T19:51:14.231Z,3.00
2023-03-05T19:53:42.595Z,5.38
2023-03-05T19:56:09.631Z,6.53
2023-03-05T19:58:37.268Z,10.05
2023-03-05T20:01:12.554Z,8.45
2023-03-05T20:03:39.519Z,6.60
2023-03-05T20:06:07.060Z,4.18
2023-03-05T20:08:33.989Z,2.97
2023-03-05T20:11:01.216Z,2.30
2023-03-05T20:13:28.520Z,3.45
2023-03-05T20:15:55.477Z,2.53
2023-03-05T20:18:22.413Z,1.60
2023-03-05T20:20:53.485Z,2.13
2023-03-05T20:23:21.213Z,3.15
2023-03-05T20:25:52.089Z,2.05
2023-03-05T20:28:25.642Z,2.00
2023-03-05T20:30:57.084Z,2.35
2023-03-05T20:33:24.928Z,2.28
2023-03-05T20:35:53.347Z,2.13
2023-03-05T20:38:22.722Z,2.08
2023-03-05T20:40:52.309Z,4.05
2023-03-05T20:43:19.545Z,1.90
2023-03-05T20:45:46.370Z,2.40
2023-03-05T20:48:13.766Z,2.30
2023-03-05T20:50:41.385Z,2.15
2023-03-05T20:53:09.401Z,1.88
2023-03-05T20:55:36.320Z,2.13
2023-03-05T20:58:03.184Z,2.08
2023-03-05T21:00:31.395Z,1.88
2023-03-05T21:02:58.300Z,2.22
2023-03-05T21:05:27.515Z,1.90
2023-03-05T21:07:55.599Z,1.70
2023-03-05T21:10:23.444Z,3.28
2023-03-05T21:12:52.056Z,2.17
2023-03-05T21:15:22.739Z,1.42
2023-03-05T21:17:50.046Z,1.40
2023-03-05T21:20:20.166Z,1.27
2023-03-05T21:22:47.482Z,1.63
2023-03-05T21:25:21.220Z,1.30
2023-03-05T21:28:09.310Z,1.95
2023-03-05T21:30:40.188Z,1.23
2023-03-05T21:33:09.808Z,1.40
2023-03-05T21:35:37.539Z,1.88
2023-03-05T21:38:06.187Z,2.22
2023-03-05T21:40:34.555Z,2.25
2023-03-05T21:43:01.781Z,1.73
2023-03-05T21:45:29.753Z,1.40
2023-03-05T21:47:58.640Z,1.80
2023-03-05T21:52:53.112Z,1.63
2023-03-05T21:55:22.671Z,1.58
2023-03-05T21:57:49.733Z,1.58
2023-03-05T22:00:22.569Z,1.67
2023-03-05T22:02:49.405Z,1.80
2023-03-05T22:05:16.114Z,1.77
2023-03-05T22:07:43.409Z,1.50
2023-03-05T22:10:13.463Z,1.42
2023-03-05T22:12:56.629Z,1.20
2023-03-05T22:15:23.472Z,1.55
2023-03-05T22:17:50.610Z,1.20
2023-03-05T22:20:17.690Z,1.38
2023-03-05T22:22:44.820Z,1.75
2023-03-05T22:25:13.515Z,1.40
2023-03-05T22:27:41.008Z,1.27
2023-03-05T22:30:09.740Z,1.27
2023-03-05T22:32:36.912Z,1.13
2023-03-05T22:35:06.465Z,1.23
2023-03-05T22:37:33.335Z,1.30
2023-03-05T22:39:59.973Z,1.10
2023-03-05T22:42:26.771Z,1.08
2023-03-05T22:44:57.777Z,1.20
2023-03-05T22:47:25.584Z,1.20
2023-03-05T22:49:52.695Z,1.30
2023-03-05T22:52:19.806Z,1.35
2023-03-05T22:54:46.572Z,1.30
2023-03-05T22:57:13.297Z,1.33
2023-03-05T22:59:40.048Z,1.10
2023-03-05T23:02:07.223Z,1.17
2023-03-05T23:04:49.239Z,1.30
2023-03-05T23:07:24.052Z,1.20
2023-03-05T23:09:52.124Z,1.27
2023-03-05T23:12:20.737Z,1.23
2023-03-05T23:14:47.993Z,1.40
2023-03-05T23:17:15.289Z,1.10
2023-03-05T23:19:42.475Z,1.35
2023-03-05T23:22:11.862Z,1.30
2023-03-05T23:24:40.470Z,1.30
2023-03-05T23:27:08.175Z,1.50
2023-03-05T23:29:48.158Z,1.50
2023-03-05T23:32:15.375Z,1.48
2023-03-05T23:34:42.558Z,1.30
2023-03-05T23:37:09.808Z,1.30
2023-03-05T23:39:36.864Z,1.42
2023-03-05T23:42:04.467Z,1.77
2023-03-05T23:44:31.637Z,1.63
2023-03-05T23:46:58.800Z,1.52
2023-03-05T23:49:25.964Z,1.50
2023-03-05T23:51:53.337Z,1.75
2023-03-05T23:54:20.419Z,1.70
2023-03-05T23:56:47.484Z,1.73
2023-03-05T23:59:14.548Z,1.80
